Containerships 6 — DABH — position and weather

sailwx.info

Track history (hours):
 
Tides and Currents Weather Stations Pressure Air Temp Water Temp Dewpoint Dewpoint Depression Visibility Wind Speed Wind Dir Waves Ship Positions

Containerships 6

Last reported at 2014-Dec-22 23:32 UTC. Time now 2014-Dec-23 00:12 UTC.
Position N 52°53' E 004°14'.

Length 155 m; beam 21.8 m; draft 8.9 m.

Type: Ship (hazmat cat A). MMSI: 211315096.

Date/timePositionNaut miles runAvg speedWind from/ knotsBaromVisibWave heightAir tempDewpointWater temp
2014-Dec-22 23:32N 52°53' E 004°14'1818.0
2014-Dec-22 22:33N 52°37' E 004°01'1717.6
2014-Dec-22 21:34N 52°20' E 003°53'1817.5
2014-Dec-22 20:33N 52°03' E 003°53'8 8.3
2014-Dec-22 19:33N 51°59' E 004°05'1211.7
2014-Dec-22 18:33N 51°54' E 004°22'2 2.1
2014-Dec-22 17:33N 51°53' E 004°25'0 0.0
2014-Dec-22 16:33N 51°53' E 004°25'0 0.0
2014-Dec-22 15:33N 51°53' E 004°25'0 0.0
2014-Dec-22 14:34N 51°53' E 004°25'0 0.0
2014-Dec-22 13:34N 51°53' E 004°25'0 0.0
2014-Dec-22 12:34N 51°53' E 004°25'0 0.0
2014-Dec-22 11:34N 51°53' E 004°25'0 0.0
2014-Dec-22 10:33N 51°53' E 004°25'0 0.0
2014-Dec-22 09:34N 51°53' E 004°25'0 0.0
2014-Dec-22 08:34N 51°53' E 004°25'0 0.0
2014-Dec-22 07:33N 51°53' E 004°25'0 0.0
2014-Dec-22 06:34N 51°53' E 004°25'0 0.0
2014-Dec-22 05:34N 51°53' E 004°25'0 0.0
2014-Dec-22 04:34N 51°53' E 004°25'2 2.5
2014-Dec-22 03:34N 51°54' E 004°21'1111.2
2014-Dec-22 02:33N 51°59' E 004°05'1515.2
2014-Dec-22 01:33N 52°03' E 003°41'2118.6
2014-Dec-22 00:26N 52°12' E 003°11'4018.7
2014-Dec-21 22:19N 52°28' E 002°11'1519.9
2014-Dec-21 21:33N 52°43' E 002°05'2121.1
2014-Dec-21 20:33N 52°55' E 001°37'2121.3
2014-Dec-21 19:34N 53°13' E 001°16'4120.3
2014-Dec-21 17:33N 53°47' E 000°39'2121.3
2014-Dec-21 16:34N 54°02' E 000°15'2121.1
2014-Dec-21 15:33N 54°18' W 000°10'2121.3
2014-Dec-21 14:33N 54°33' W 000°36'2019.6
2014-Dec-21 13:33N 54°40' W 001°08'4 1.8
2014-Dec-21 11:32N 54°36' W 001°09'0 0.0
2014-Dec-21 10:31N 54°36' W 001°09'0 0.0
2014-Dec-21 09:33N 54°36' W 001°09'0 0.0
2014-Dec-21 08:33N 54°36' W 001°09'0 0.0
2014-Dec-21 07:33N 54°36' W 001°09'2 0.3
2014-Dec-21 00:32N 54°38' W 001°09'1212.2
2014-Dec-20 23:33N 54°39' W 000°48'1616.2
2014-Dec-20 22:34N 54°35' W 000°21'1716.9
2014-Dec-20 21:34N 54°30' E 000°07'1616.5
2014-Dec-20 20:34N 54°26' E 000°34'153 8.8
2014-Dec-20 03:08N 54°07' E 004°54'4 7.3
2014-Dec-20 02:33N 54°07' E 005°02'8 7.7
2014-Dec-20 01:33N 54°06' E 005°15'8 8.1
2014-Dec-20 00:33N 54°07' E 005°28'8 7.8
2014-Dec-19 23:33N 54°08' E 005°42'8 8.3
2014-Dec-19 22:32N 54°10' E 005°56'9 9.3
2014-Dec-19 21:32N 54°11' E 006°12'3010.0
2014-Dec-19 18:33N 54°13' E 007°02'1110.5
2014-Dec-19 17:33N 54°13' E 007°20'1312.8
2014-Dec-19 16:33N 54°10' E 007°42'1817.5
2014-Dec-19 15:33N 54°01' E 008°07'1817.9
2014-Dec-19 14:33N 53°58' E 008°37'1717.2
2014-Dec-19 13:33N 53°52' E 009°05'3 3.4
2014-Dec-19 12:34N 53°54' E 009°10'8 7.5
2014-Dec-19 11:33N 54°00' E 009°18'9 8.4
2014-Dec-19 10:32N 54°09' E 009°21'7 7.2
2014-Dec-19 09:33N 54°12' E 009°32'9 7.7
2014-Dec-19 08:24N 54°18' E 009°42'6 7.5
2014-Dec-19 07:34N 54°22' E 009°51'8 7.5
2014-Dec-19 06:34N 54°22' E 010°04'3 2.9
2014-Dec-19 05:34N 54°22' E 010°09'4 3.7
2014-Dec-19 04:34N 54°25' E 010°12'1515.1
2014-Dec-19 03:33N 54°34' E 010°33'1917.9
2014-Dec-19 02:31N 54°36' E 011°06'1617.1
2014-Dec-19 01:33N 54°30' E 011°31'1817.7
2014-Dec-19 00:33N 54°26' E 012°01'6917.3
2014-Dec-18 20:33N 55°01' E 013°45'1717.5
2014-Dec-18 19:34N 55°10' E 014°10'1818.2
2014-Dec-18 18:34N 55°24' E 014°30'1817.8
2014-Dec-18 17:34N 55°33' E 014°57'1918.6
2014-Dec-18 16:32N 55°43' E 015°27'36718.3
2014-Dec-17 20:33N 59°44' E 024°03'60 3.5
2014-Dec-17 03:16N 59°59' E 026°00'1317.9
2014-Dec-17 02:33N 60°01' E 026°25'2417.4
2014-Dec-17 01:11N 60°03' E 027°13'12 0.5
2014-Dec-16 00:06N 59°59' E 026°50'611.7
2014-Dec-15 23:33N 59°60' E 026°37'65 4.6
2014-Dec-15 09:33N 59°45' E 024°32'2218.8
2014-Dec-15 08:24N 59°39' E 023°50'1618.6
2014-Dec-15 07:33N 59°34' E 023°21'34718.2
2014-Dec-14 12:29N 55°39' E 015°26'1718.8
2014-Dec-14 11:34N 55°31' E 014°59'1918.6
2014-Dec-14 10:34N 55°20' E 014°32'1919.2
2014-Dec-14 09:34N 55°04' E 014°12'1818.5
2014-Dec-14 08:34N 54°56' E 013°43'5618.1
2014-Dec-14 05:28N 54°31' E 012°17'1516.3
2014-Dec-14 04:33N 54°25' E 011°53'5418.1
2014-Dec-14 01:33N 54°30' E 010°21'1110.5
2014-Dec-14 00:33N 54°22' E 010°09'1 0.9
2014-Dec-13 23:33N 54°22' E 010°07'4 4.4
2014-Dec-13 22:33N 54°21' E 009°60'7 6.9
2014-Dec-13 21:30N 54°22' E 009°47'12 6.0
2014-Dec-13 19:33N 54°13' E 009°35'6 5.6
2014-Dec-13 18:30N 54°10' E 009°26'7 7.6
2014-Dec-13 17:33N 54°04' E 009°19'8 8.1
2014-Dec-13 16:33N 53°57' E 009°14'4 4.2
2014-Dec-13 15:33N 53°54' E 009°09'5 4.5
2014-Dec-13 14:33N 53°52' E 009°02'1514.8
2014-Dec-13 13:33N 53°57' E 008°38'1717.1
2014-Dec-13 12:33N 53°59' E 008°10'2019.5
2014-Dec-13 11:32N 53°55' E 007°37'5618.7
2014-Dec-13 08:34N 53°43' E 006°05'1818.1
2014-Dec-13 07:33N 53°37' E 005°36'1817.7
2014-Dec-13 06:33N 53°31' E 005°08'1717.2
2014-Dec-13 05:34N 53°22' E 004°43'1717.3
2014-Dec-13 04:33N 53°07' E 004°29'1717.3
2014-Dec-13 03:34N 52°52' E 004°15'1716.9
2014-Dec-13 02:34N 52°38' E 004°01'1616.4
2014-Dec-13 01:34N 52°22' E 003°53'1716.7
2014-Dec-13 00:34N 52°06' E 003°55'1212.3
2014-Dec-12 23:33N 51°57' E 004°10'  
Track history (hours):
 
Tides and Currents Weather Stations Pressure Air Temp Water Temp Dewpoint Dewpoint Depression Visibility Wind Speed Wind Dir Waves Ship Positions

Containerships 6

Last reported at 2014-Dec-22 23:32 UTC. Time now 2014-Dec-23 00:12 UTC.
Position N 52°53' E 004°14'.

Length 155 m; beam 21.8 m; draft 8.9 m.

Type: Ship (hazmat cat A). MMSI: 211315096.

Date/timePositionNaut miles runAvg speedWind from/ knotsBaromVisibWave heightAir tempDewpointWater temp
2014-Dec-22 23:32N 52°53' E 004°14'1818.0
2014-Dec-22 22:33N 52°37' E 004°01'1717.6
2014-Dec-22 21:34N 52°20' E 003°53'1817.5
2014-Dec-22 20:33N 52°03' E 003°53'8 8.3
2014-Dec-22 19:33N 51°59' E 004°05'1211.7
2014-Dec-22 18:33N 51°54' E 004°22'2 2.1
2014-Dec-22 17:33N 51°53' E 004°25'0 0.0
2014-Dec-22 16:33N 51°53' E 004°25'0 0.0
2014-Dec-22 15:33N 51°53' E 004°25'0 0.0
2014-Dec-22 14:34N 51°53' E 004°25'0 0.0
2014-Dec-22 13:34N 51°53' E 004°25'0 0.0
2014-Dec-22 12:34N 51°53' E 004°25'0 0.0
2014-Dec-22 11:34N 51°53' E 004°25'0 0.0
2014-Dec-22 10:33N 51°53' E 004°25'0 0.0
2014-Dec-22 09:34N 51°53' E 004°25'0 0.0
2014-Dec-22 08:34N 51°53' E 004°25'0 0.0
2014-Dec-22 07:33N 51°53' E 004°25'0 0.0
2014-Dec-22 06:34N 51°53' E 004°25'0 0.0
2014-Dec-22 05:34N 51°53' E 004°25'0 0.0
2014-Dec-22 04:34N 51°53' E 004°25'2 2.5
2014-Dec-22 03:34N 51°54' E 004°21'1111.2
2014-Dec-22 02:33N 51°59' E 004°05'1515.2
2014-Dec-22 01:33N 52°03' E 003°41'2118.6
2014-Dec-22 00:26N 52°12' E 003°11'4018.7
2014-Dec-21 22:19N 52°28' E 002°11'1519.9
2014-Dec-21 21:33N 52°43' E 002°05'2121.1
2014-Dec-21 20:33N 52°55' E 001°37'2121.3
2014-Dec-21 19:34N 53°13' E 001°16'4120.3
2014-Dec-21 17:33N 53°47' E 000°39'2121.3
2014-Dec-21 16:34N 54°02' E 000°15'2121.1
2014-Dec-21 15:33N 54°18' W 000°10'2121.3
2014-Dec-21 14:33N 54°33' W 000°36'2019.6
2014-Dec-21 13:33N 54°40' W 001°08'4 1.8
2014-Dec-21 11:32N 54°36' W 001°09'0 0.0
2014-Dec-21 10:31N 54°36' W 001°09'0 0.0
2014-Dec-21 09:33N 54°36' W 001°09'0 0.0
2014-Dec-21 08:33N 54°36' W 001°09'0 0.0
2014-Dec-21 07:33N 54°36' W 001°09'2 0.3
2014-Dec-21 00:32N 54°38' W 001°09'1212.2
2014-Dec-20 23:33N 54°39' W 000°48'1616.2
2014-Dec-20 22:34N 54°35' W 000°21'1716.9
2014-Dec-20 21:34N 54°30' E 000°07'1616.5
2014-Dec-20 20:34N 54°26' E 000°34'153 8.8
2014-Dec-20 03:08N 54°07' E 004°54'4 7.3
2014-Dec-20 02:33N 54°07' E 005°02'8 7.7
2014-Dec-20 01:33N 54°06' E 005°15'8 8.1
2014-Dec-20 00:33N 54°07' E 005°28'8 7.8
2014-Dec-19 23:33N 54°08' E 005°42'8 8.3
2014-Dec-19 22:32N 54°10' E 005°56'9 9.3
2014-Dec-19 21:32N 54°11' E 006°12'3010.0
2014-Dec-19 18:33N 54°13' E 007°02'1110.5
2014-Dec-19 17:33N 54°13' E 007°20'1312.8
2014-Dec-19 16:33N 54°10' E 007°42'1817.5
2014-Dec-19 15:33N 54°01' E 008°07'1817.9
2014-Dec-19 14:33N 53°58' E 008°37'1717.2
2014-Dec-19 13:33N 53°52' E 009°05'3 3.4
2014-Dec-19 12:34N 53°54' E 009°10'8 7.5
2014-Dec-19 11:33N 54°00' E 009°18'9 8.4
2014-Dec-19 10:32N 54°09' E 009°21'7 7.2
2014-Dec-19 09:33N 54°12' E 009°32'9 7.7
2014-Dec-19 08:24N 54°18' E 009°42'6 7.5
2014-Dec-19 07:34N 54°22' E 009°51'8 7.5
2014-Dec-19 06:34N 54°22' E 010°04'3 2.9
2014-Dec-19 05:34N 54°22' E 010°09'4 3.7
2014-Dec-19 04:34N 54°25' E 010°12'1515.1
2014-Dec-19 03:33N 54°34' E 010°33'1917.9
2014-Dec-19 02:31N 54°36' E 011°06'1617.1
2014-Dec-19 01:33N 54°30' E 011°31'1817.7
2014-Dec-19 00:33N 54°26' E 012°01'6917.3
2014-Dec-18 20:33N 55°01' E 013°45'1717.5
2014-Dec-18 19:34N 55°10' E 014°10'1818.2
2014-Dec-18 18:34N 55°24' E 014°30'1817.8
2014-Dec-18 17:34N 55°33' E 014°57'1918.6
2014-Dec-18 16:32N 55°43' E 015°27'36718.3
2014-Dec-17 20:33N 59°44' E 024°03'60 3.5
2014-Dec-17 03:16N 59°59' E 026°00'1317.9
2014-Dec-17 02:33N 60°01' E 026°25'2417.4
2014-Dec-17 01:11N 60°03' E 027°13'12 0.5
2014-Dec-16 00:06N 59°59' E 026°50'611.7
2014-Dec-15 23:33N 59°60' E 026°37'65 4.6
2014-Dec-15 09:33N 59°45' E 024°32'2218.8
2014-Dec-15 08:24N 59°39' E 023°50'1618.6
2014-Dec-15 07:33N 59°34' E 023°21'34718.2
2014-Dec-14 12:29N 55°39' E 015°26'1718.8
2014-Dec-14 11:34N 55°31' E 014°59'1918.6
2014-Dec-14 10:34N 55°20' E 014°32'1919.2
2014-Dec-14 09:34N 55°04' E 014°12'1818.5
2014-Dec-14 08:34N 54°56' E 013°43'5618.1
2014-Dec-14 05:28N 54°31' E 012°17'1516.3
2014-Dec-14 04:33N 54°25' E 011°53'5418.1
2014-Dec-14 01:33N 54°30' E 010°21'1110.5
2014-Dec-14 00:33N 54°22' E 010°09'1 0.9
2014-Dec-13 23:33N 54°22' E 010°07'4 4.4
2014-Dec-13 22:33N 54°21' E 009°60'7 6.9
2014-Dec-13 21:30N 54°22' E 009°47'12 6.0
2014-Dec-13 19:33N 54°13' E 009°35'6 5.6
2014-Dec-13 18:30N 54°10' E 009°26'7 7.6
2014-Dec-13 17:33N 54°04' E 009°19'8 8.1
2014-Dec-13 16:33N 53°57' E 009°14'4 4.2
2014-Dec-13 15:33N 53°54' E 009°09'5 4.5
2014-Dec-13 14:33N 53°52' E 009°02'1514.8
2014-Dec-13 13:33N 53°57' E 008°38'1717.1
2014-Dec-13 12:33N 53°59' E 008°10'2019.5
2014-Dec-13 11:32N 53°55' E 007°37'5618.7
2014-Dec-13 08:34N 53°43' E 006°05'1818.1
2014-Dec-13 07:33N 53°37' E 005°36'1817.7
2014-Dec-13 06:33N 53°31' E 005°08'1717.2
2014-Dec-13 05:34N 53°22' E 004°43'1717.3
2014-Dec-13 04:33N 53°07' E 004°29'1717.3
2014-Dec-13 03:34N 52°52' E 004°15'1716.9
2014-Dec-13 02:34N 52°38' E 004°01'1616.4
2014-Dec-13 01:34N 52°22' E 003°53'1716.7
2014-Dec-13 00:34N 52°06' E 003°55'1212.3
2014-Dec-12 23:33N 51°57' E 004°10'  

Dump ship's entire track history